Time;durP1;ratioP1;P1;durP2;ratioP2;P2;SDS_P1;SDS_P2;PMS_P1;PMS_P2;Temp;Humidity;BMP_temperature;BMP_pressure;BME280_temperature;BME280_humidity;BME280_pressure;Samples;Min_cycle;Max_cycle;Signal;HPM_P1;HPM_P2
2021/06/16 00:02:27;;;;;;;5.28;3.53;;;21.70;89.90;;;;;;5121807;27;20059;-48
2021/06/16 00:04:55;;;;;;;7.82;3.80;;;21.60;89.70;;;;;;5136431;27;20051;-48
2021/06/16 00:07:23;;;;;;;6.95;5.13;;;21.60;89.80;;;;;;5121657;27;20062;-47
2021/06/16 00:09:50;;;;;;;6.82;3.92;;;21.60;89.80;;;;;;5117746;27;20046;-48
2021/06/16 00:12:18;;;;;;;8.32;3.70;;;21.60;89.70;;;;;;5121994;27;20136;-49
2021/06/16 00:14:46;;;;;;;4.40;3.05;;;21.50;89.80;;;;;;5134619;27;20048;-47
2021/06/16 00:17:14;;;;;;;7.93;3.55;;;21.50;89.90;;;;;;5121733;27;20043;-47
2021/06/16 00:19:41;;;;;;;5.70;3.28;;;21.50;89.90;;;;;;5093553;28;20421;-50
2021/06/16 00:22:09;;;;;;;6.32;3.30;;;21.40;89.90;;;;;;5112169;27;20078;-47
2021/06/16 00:24:37;;;;;;;5.72;3.15;;;21.40;89.90;;;;;;5116583;27;20179;-47
2021/06/16 00:27:05;;;;;;;6.63;3.15;;;21.40;90.00;;;;;;5106176;28;20097;-48
2021/06/16 00:29:33;;;;;;;6.88;3.00;;;21.40;89.90;;;;;;5111675;27;20039;-50
2021/06/16 00:32:01;;;;;;;3.85;2.97;;;21.40;90.00;;;;;;5089716;28;20382;-47
2021/06/16 00:34:31;;;;;;;5.63;3.45;;;21.40;89.90;;;;;;5147961;27;20390;-48
2021/06/16 00:36:59;;;;;;;6.15;3.80;;;21.40;89.80;;;;;;5123489;27;20075;-47
2021/06/16 00:39:27;;;;;;;7.22;3.53;;;21.30;89.80;;;;;;5114593;27;20054;-49
2021/06/16 00:41:54;;;;;;;5.65;3.25;;;21.30;89.90;;;;;;5107636;28;20062;-46
2021/06/16 00:44:22;;;;;;;9.00;3.85;;;21.40;89.80;;;;;;5131537;27;20137;-48
2021/06/16 00:46:50;;;;;;;6.95;3.28;;;21.40;90.00;;;;;;5124613;27;20055;-49
2021/06/16 00:49:18;;;;;;;6.95;4.00;;;21.30;89.90;;;;;;5131848;27;20047;-47
2021/06/16 00:51:46;;;;;;;9.90;3.28;;;21.30;89.80;;;;;;5104910;28;20394;-47
2021/06/16 00:54:13;;;;;;;5.30;3.13;;;21.30;89.80;;;;;;5113057;27;20555;-51
2021/06/16 00:56:50;;;;;;;11.88;3.05;;;21.30;89.80;;;;;;5113997;27;20058;-47
2021/06/16 00:59:18;;;;;;;7.07;2.58;;;21.30;89.70;;;;;;5113592;27;20096;-48
2021/06/16 01:01:48;;;;;;;5.28;3.05;;;21.30;89.60;;;;;;5125008;27;20055;-47
2021/06/16 01:04:21;;;;;;;5.07;3.30;;;21.30;89.60;;;;;;5130528;27;20126;-47
2021/06/16 01:06:58;;;;;;;7.28;3.33;;;21.30;89.60;;;;;;5105221;27;20096;-47
2021/06/16 01:09:35;;;;;;;12.13;2.90;;;21.30;89.70;;;;;;5121556;27;20090;-49
2021/06/16 01:12:34;;;;;;;9.18;4.15;;;21.20;89.70;;;;;;5118306;27;20047;-47
2021/06/16 01:15:10;;;;;;;4.82;2.88;;;21.20;89.90;;;;;;5076128;28;20044;-47
2021/06/16 01:17:45;;;;;;;5.88;2.70;;;21.20;89.80;;;;;;5122645;27;20043;-47
2021/06/16 01:20:37;;;;;;;8.07;3.42;;;21.20;89.90;;;;;;5133289;27;20071;-48
2021/06/16 01:23:08;;;;;;;6.28;3.05;;;21.20;90.00;;;;;;5121988;27;20134;-48
2021/06/16 01:26:00;;;;;;;5.38;3.45;;;21.20;89.80;;;;;;5113522;27;20115;-47
2021/06/16 01:28:33;;;;;;;5.35;3.08;;;21.10;89.90;;;;;;5100675;28;20379;-47
2021/06/16 01:31:02;;;;;;;4.65;2.67;;;21.10;90.00;;;;;;5086285;27;20096;-46
2021/06/16 01:33:30;;;;;;;6.55;3.28;;;21.10;89.90;;;;;;5106841;27;20527;-47
2021/06/16 01:35:58;;;;;;;6.90;3.22;;;21.20;89.90;;;;;;5129093;27;20105;-48
2021/06/16 01:38:26;;;;;;;6.82;3.72;;;21.20;89.80;;;;;;5123884;27;20408;-46
2021/06/16 01:40:57;;;;;;;6.30;3.08;;;21.20;89.80;;;;;;5129305;27;20055;-46
2021/06/16 01:43:27;;;;;;;6.38;3.60;;;21.20;89.90;;;;;;5123851;27;20051;-47
2021/06/16 01:45:59;;;;;;;6.25;3.53;;;21.20;90.00;;;;;;5129515;27;20484;-47
2021/06/16 01:48:28;;;;;;;5.35;3.30;;;21.20;89.80;;;;;;5123884;27;20609;-47
2021/06/16 01:50:57;;;;;;;4.88;3.00;;;21.20;89.80;;;;;;5110764;27;20214;-47
2021/06/16 01:53:25;;;;;;;5.50;2.90;;;21.20;89.70;;;;;;5123226;27;20138;-48
2021/06/16 01:55:54;;;;;;;8.43;4.10;;;21.30;89.80;;;;;;5129135;27;20071;-49
2021/06/16 01:58:22;;;;;;;6.72;3.60;;;21.30;89.80;;;;;;5123755;27;20047;-47
2021/06/16 02:00:53;;;;;;;4.30;2.85;;;21.20;89.80;;;;;;5110291;27;20040;-47
2021/06/16 02:03:21;;;;;;;5.72;3.67;;;21.20;89.90;;;;;;5105867;27;20051;-47
2021/06/16 02:05:49;;;;;;;4.13;2.97;;;21.10;89.90;;;;;;5109691;27;20093;-48
2021/06/16 02:08:21;;;;;;;6.18;2.95;;;21.10;90.30;;;;;;5105864;27;20059;-49
2021/06/16 02:10:53;;;;;;;;;;;21.10;90.20;;;;;;5129310;27;20052;-48
2021/06/16 02:13:28;;;;;;;3.97;3.20;;;21.10;90.30;;;;;;5123145;27;19984;-47
2021/06/16 02:16:03;;;;;;;9.05;3.58;;;21.00;90.40;;;;;;5110893;28;20071;-49
2021/06/16 02:18:40;;;;;;;5.82;3.53;;;21.00;90.60;;;;;;5105746;27;20047;-49
2021/06/16 02:21:14;;;;;;;8.02;3.28;;;21.00;90.60;;;;;;5111605;27;20184;-48
2021/06/16 02:23:44;;;;;;;10.77;3.95;;;21.00;90.60;;;;;;5124024;28;20050;-48
2021/06/16 02:26:15;;;;;;;5.85;3.22;;;21.00;90.60;;;;;;5127867;27;20542;-48
2021/06/16 02:28:46;;;;;;;4.93;3.15;;;21.00;90.70;;;;;;5124507;27;20178;-50
2021/06/16 02:31:16;;;;;;;6.53;3.60;;;21.00;90.70;;;;;;5110379;28;20069;-48
2021/06/16 02:33:49;;;;;;;5.70;2.70;;;21.00;90.80;;;;;;5124024;28;20084;-50
2021/06/16 02:36:19;;;;;;;4.10;3.20;;;21.00;90.90;;;;;;5110274;28;20047;-50
2021/06/16 02:38:57;;;;;;;7.07;3.00;;;20.90;90.90;;;;;;5090664;28;20556;-48
2021/06/16 02:41:26;;;;;;;6.20;2.60;;;20.90;91.00;;;;;;5109034;28;20330;-49
2021/06/16 02:43:58;;;;;;;7.00;3.40;;;20.90;91.00;;;;;;5125999;28;20131;-47
2021/06/16 02:46:29;;;;;;;5.00;3.35;;;21.00;91.10;;;;;;5092594;28;20055;-47
2021/06/16 02:48:58;;;;;;;5.55;2.92;;;21.00;91.20;;;;;;5092062;28;20054;-48
2021/06/16 02:51:26;;;;;;;4.63;2.92;;;20.90;91.30;;;;;;5127345;27;20092;-46
2021/06/16 02:53:55;;;;;;;8.95;5.15;;;20.90;91.30;;;;;;5125302;28;20400;-47
2021/06/16 02:56:23;;;;;;;10.00;3.70;;;20.90;91.40;;;;;;5109281;28;20080;-46
2021/06/16 02:58:53;;;;;;;8.60;4.43;;;20.90;91.50;;;;;;5124872;28;20043;-48
2021/06/16 03:01:22;;;;;;;6.80;4.60;;;20.90;91.50;;;;;;5092872;28;20043;-46
2021/06/16 03:03:51;;;;;;;6.47;4.30;;;20.90;91.60;;;;;;5124963;28;20051;-46
2021/06/16 03:06:24;;;;;;;6.55;4.25;;;20.80;91.70;;;;;;5127172;28;20186;-47
2021/06/16 03:08:55;;;;;;;7.50;3.70;;;20.80;91.70;;;;;;5126261;28;20051;-48
2021/06/16 03:11:25;;;;;;;5.97;4.20;;;20.80;91.70;;;;;;5127929;27;20063;-48
2021/06/16 03:13:53;;;;;;;5.63;3.78;;;20.80;91.80;;;;;;5126292;28;20047;-47
2021/06/16 03:16:21;;;;;;;6.85;4.18;;;20.80;91.80;;;;;;5126950;28;20583;-47
2021/06/16 03:18:50;;;;;;;8.77;3.45;;;20.80;91.80;;;;;;5124543;27;20043;-46
2021/06/16 03:21:18;;;;;;;8.30;3.00;;;20.80;91.90;;;;;;5130661;27;20126;-47
2021/06/16 03:23:48;;;;;;;7.00;2.72;;;20.80;91.90;;;;;;5127691;27;20039;-50
2021/06/16 03:26:17;;;;;;;5.25;2.97;;;20.70;91.80;;;;;;5114125;27;20142;-47
2021/06/16 03:28:47;;;;;;;5.97;3.58;;;20.70;91.90;;;;;;5128084;27;20146;-47
2021/06/16 03:31:16;;;;;;;7.78;3.25;;;20.70;91.80;;;;;;5097206;27;20057;-47
2021/06/16 03:33:46;;;;;;;8.23;3.22;;;20.70;91.70;;;;;;5046664;27;20047;-44
2021/06/16 03:36:15;;;;;;;13.80;4.00;;;20.70;91.70;;;;;;4985086;27;20044;-47
2021/06/16 03:38:43;;;;;;;6.18;3.97;;;20.60;91.60;;;;;;5093310;27;20442;-47
2021/06/16 03:41:12;;;;;;;9.55;3.92;;;20.60;91.10;;;;;;5131427;27;20040;-57
2021/06/16 03:43:41;;;;;;;9.48;4.60;;;20.60;91.10;;;;;;5069021;28;20044;-47
2021/06/16 03:46:09;;;;;;;9.18;3.60;;;20.50;90.90;;;;;;5109111;27;20107;-48
2021/06/16 03:48:39;;;;;;;13.27;4.50;;;20.60;90.90;;;;;;5103329;28;20135;-46
2021/06/16 03:51:07;;;;;;;6.30;3.63;;;20.60;90.70;;;;;;5090448;27;20046;-47
2021/06/16 03:53:35;;;;;;;7.15;4.57;;;20.60;90.60;;;;;;5108637;27;20049;-47
2021/06/16 03:56:04;;;;;;;7.32;4.28;;;20.60;90.60;;;;;;5127136;27;20206;-49
2021/06/16 03:58:33;;;;;;;4.43;2.78;;;20.60;90.50;;;;;;5117560;27;20184;-47
2021/06/16 04:01:02;;;;;;;9.10;4.10;;;20.70;90.50;;;;;;4967644;27;20644;-45
2021/06/16 04:03:31;;;;;;;5.97;3.33;;;20.70;90.40;;;;;;5075183;27;20059;-46
2021/06/16 04:05:59;;;;;;;5.97;3.75;;;20.80;90.20;;;;;;4980393;27;20047;-50
2021/06/16 04:08:27;;;;;;;6.60;3.47;;;20.90;90.10;;;;;;5119355;27;20126;-47
2021/06/16 04:10:56;;;;;;;6.05;2.80;;;20.90;90.00;;;;;;5100632;27;20074;-47
2021/06/16 04:13:24;;;;;;;4.97;3.10;;;21.10;89.90;;;;;;5117100;27;20048;-47
2021/06/16 04:15:52;;;;;;;8.77;4.68;;;21.10;89.50;;;;;;5112210;27;20102;-47
2021/06/16 04:18:19;;;;;;;6.90;2.80;;;21.20;89.30;;;;;;5103105;28;20545;-47
2021/06/16 04:20:47;;;;;;;3.72;2.67;;;21.30;89.10;;;;;;5101580;27;20138;-47
2021/06/16 04:23:15;;;;;;;6.57;3.38;;;21.40;88.70;;;;;;5120384;27;20044;-49
2021/06/16 04:25:43;;;;;;;5.07;2.72;;;21.50;88.20;;;;;;5131160;27;20031;-50
2021/06/16 04:28:10;;;;;;;7.47;3.35;;;21.60;88.10;;;;;;5127145;27;20075;-49
2021/06/16 04:30:38;;;;;;;5.82;3.08;;;21.60;87.60;;;;;;5105907;27;20053;-51
2021/06/16 04:33:08;;;;;;;4.88;2.67;;;21.70;87.30;;;;;;5102188;28;20047;-49
2021/06/16 04:35:36;;;;;;;6.53;2.97;;;21.80;87.20;;;;;;5108979;27;20044;-50
2021/06/16 04:38:04;;;;;;;5.35;2.85;;;21.90;86.90;;;;;;5129104;27;20053;-47
2021/06/16 04:40:31;;;;;;;4.68;2.63;;;22.00;86.50;;;;;;5086613;27;20078;-50
2021/06/16 04:42:59;;;;;;;8.02;3.65;;;22.20;86.30;;;;;;5121456;27;20043;-50
2021/06/16 04:45:27;;;;;;;4.50;2.80;;;22.30;86.10;;;;;;5113040;27;20079;-53
2021/06/16 04:47:55;;;;;;;5.95;3.47;;;22.40;85.90;;;;;;5122103;27;20255;-47
2021/06/16 04:50:22;;;;;;;4.03;2.47;;;22.50;85.60;;;;;;5132585;27;20055;-47
2021/06/16 04:52:50;;;;;;;8.60;3.80;;;22.60;85.50;;;;;;5102682;28;20058;-47
2021/06/16 04:55:18;;;;;;;5.50;2.50;;;22.70;85.10;;;;;;5114047;27;20050;-46
2021/06/16 04:57:45;;;;;;;8.40;3.10;;;22.90;85.10;;;;;;5123087;27;20058;-45
2021/06/16 05:00:14;;;;;;;6.65;3.10;;;23.00;85.00;;;;;;5133341;27;20043;-46
2021/06/16 05:02:41;;;;;;;6.82;3.22;;;23.10;85.10;;;;;;5090241;28;20051;-50
2021/06/16 05:05:10;;;;;;;11.35;3.10;;;23.10;84.90;;;;;;5113207;28;20036;-47
2021/06/16 05:07:37;;;;;;;6.63;3.17;;;23.30;84.90;;;;;;5126411;27;20056;-50
2021/06/16 05:10:06;;;;;;;5.70;3.15;;;23.50;85.00;;;;;;5113445;28;20066;-48
2021/06/16 05:12:34;;;;;;;5.47;2.70;;;23.60;84.90;;;;;;5125006;27;20076;-47
2021/06/16 05:15:03;;;;;;;5.40;2.80;;;23.70;85.10;;;;;;5115109;28;20061;-47
2021/06/16 05:17:31;;;;;;;7.00;2.65;;;23.80;85.00;;;;;;5085841;27;20052;-47
2021/06/16 05:19:59;;;;;;;6.32;3.15;;;23.90;85.20;;;;;;5133597;27;20055;-46
2021/06/16 05:22:28;;;;;;;4.57;2.85;;;24.00;85.00;;;;;;5121973;27;20054;-46
2021/06/16 05:24:58;;;;;;;5.20;3.22;;;24.10;84.90;;;;;;5116185;27;20051;-47
2021/06/16 05:27:26;;;;;;;4.93;2.88;;;24.30;85.00;;;;;;5101890;27;20056;-46
2021/06/16 05:29:54;;;;;;;6.75;3.10;;;24.40;84.60;;;;;;5133718;27;20080;-46
2021/06/16 05:32:21;;;;;;;7.35;2.60;;;24.60;84.40;;;;;;5120904;27;20082;-46
2021/06/16 05:34:52;;;;;;;8.45;3.22;;;24.80;84.10;;;;;;5117129;27;20070;-46
2021/06/16 05:37:19;;;;;;;8.32;3.83;;;24.90;83.90;;;;;;5120807;27;20043;-53
2021/06/16 05:39:47;;;;;;;6.15;3.35;;;25.10;83.70;;;;;;5133415;27;20051;-51
2021/06/16 05:42:15;;;;;;;4.50;3.28;;;25.10;83.40;;;;;;5120905;27;20081;-52
2021/06/16 05:44:43;;;;;;;5.10;3.10;;;25.20;83.30;;;;;;5109356;28;20048;-50
2021/06/16 05:47:10;;;;;;;7.40;4.03;;;25.40;83.20;;;;;;5116377;27;20043;-46
2021/06/16 05:49:38;;;;;;;6.43;3.53;;;25.40;83.00;;;;;;5133424;27;20088;-46
2021/06/16 05:52:06;;;;;;;6.57;3.67;;;25.60;82.90;;;;;;5121990;27;20083;-46
2021/06/16 05:54:38;;;;;;;6.80;3.22;;;25.70;82.80;;;;;;5132275;27;20515;-47
2021/06/16 05:57:06;;;;;;;7.78;3.50;;;25.80;82.70;;;;;;5101450;28;20052;-47
2021/06/16 05:59:34;;;;;;;7.53;3.05;;;25.80;82.60;;;;;;5107912;28;20048;-47
2021/06/16 06:02:02;;;;;;;6.38;3.47;;;25.90;82.60;;;;;;5097844;28;20055;-46
2021/06/16 06:04:30;;;;;;;4.47;2.42;;;26.00;82.40;;;;;;5113392;27;20069;-46
2021/06/16 06:06:58;;;;;;;5.20;2.63;;;26.00;82.30;;;;;;5122774;27;20223;-46
2021/06/16 06:09:26;;;;;;;4.75;2.50;;;26.10;81.50;;;;;;5131012;27;20054;-46
2021/06/16 06:11:54;;;;;;;5.50;2.42;;;26.20;81.10;;;;;;5124430;27;20516;-47
2021/06/16 06:14:22;;;;;;;8.52;2.55;;;26.30;81.00;;;;;;5130416;27;20081;-45
2021/06/16 06:16:50;;;;;;;5.68;2.58;;;26.40;80.70;;;;;;5124978;27;20078;-48
2021/06/16 06:19:18;;;;;;;3.95;2.78;;;26.50;80.20;;;;;;5130624;27;20111;-47
2021/06/16 06:21:45;;;;;;;3.70;1.98;;;26.60;79.30;;;;;;5124255;27;20448;-49
2021/06/16 06:24:13;;;;;;;4.93;2.00;;;26.50;78.90;;;;;;5130236;27;20065;-46
2021/06/16 06:26:41;;;;;;;5.85;2.13;;;26.60;78.80;;;;;;5124833;27;20054;-52
2021/06/16 06:29:09;;;;;;;4.55;2.17;;;26.60;79.10;;;;;;5128445;27;20108;-51
2021/06/16 06:31:37;;;;;;;5.57;2.67;;;26.70;79.20;;;;;;5126581;27;20096;-49
2021/06/16 06:34:04;;;;;;;4.28;2.20;;;26.80;79.10;;;;;;5127655;28;20413;-51
2021/06/16 06:36:33;;;;;;;3.95;2.53;;;26.90;78.80;;;;;;5126098;28;20058;-50
2021/06/16 06:39:01;;;;;;;4.32;2.03;;;27.00;78.60;;;;;;5127133;28;20046;-51
2021/06/16 06:41:28;;;;;;;3.13;1.90;;;27.10;78.60;;;;;;5109463;28;20051;-48
2021/06/16 06:43:57;;;;;;;3.67;2.10;;;27.20;77.70;;;;;;5126327;28;20063;-47
2021/06/16 06:46:25;;;;;;;4.75;2.13;;;27.20;77.00;;;;;;5127443;28;20059;-47
2021/06/16 06:48:52;;;;;;;4.35;2.45;;;27.30;77.30;;;;;;5108974;28;20051;-48
2021/06/16 06:51:20;;;;;;;6.47;2.67;;;27.30;76.50;;;;;;5127516;28;20534;-49
2021/06/16 06:53:48;;;;;;;5.45;2.55;;;27.40;76.20;;;;;;5127003;27;20051;-49
2021/06/16 06:56:16;;;;;;;6.78;2.20;;;27.40;75.70;;;;;;5132425;27;20122;-51
2021/06/16 06:58:44;;;;;;;3.60;2.40;;;27.60;75.80;;;;;;5111999;27;20078;-46
2021/06/16 07:01:12;;;;;;;5.75;2.45;;;27.60;75.30;;;;;;5133980;27;20043;-46
2021/06/16 07:03:39;;;;;;;4.78;2.22;;;27.60;75.10;;;;;;5128028;27;20569;-46
2021/06/16 07:06:07;;;;;;;6.00;2.88;;;27.70;75.80;;;;;;5134074;27;20504;-46
2021/06/16 07:08:35;;;;;;;8.82;3.17;;;27.80;75.80;;;;;;5127600;27;20047;-50
2021/06/16 07:11:03;;;;;;;4.07;2.28;;;27.80;75.10;;;;;;5134118;27;20126;-51
2021/06/16 07:13:30;;;;;;;7.20;3.00;;;27.80;75.10;;;;;;5126944;27;20445;-51
2021/06/16 07:16:06;;;;;;;5.30;2.87;;;27.80;74.70;;;;;;5134052;27;20485;-53
2021/06/16 07:18:33;;;;;;;4.25;2.53;;;27.90;74.60;;;;;;5110197;27;20085;-49
2021/06/16 07:21:02;;;;;;;4.07;2.10;;;27.90;74.00;;;;;;5133651;27;20577;-48
2021/06/16 07:23:29;;;;;;;6.40;2.50;;;28.00;74.80;;;;;;5126854;27;20084;-46
2021/06/16 07:25:57;;;;;;;5.55;3.13;;;28.00;74.30;;;;;;5133791;27;20062;-46
2021/06/16 07:28:25;;;;;;;7.60;3.15;;;28.20;74.80;;;;;;5109879;27;20046;-46
2021/06/16 07:30:53;;;;;;;3.88;2.60;;;28.10;74.60;;;;;;5133601;27;20048;-46
2021/06/16 07:33:21;;;;;;;3.15;2.17;;;28.20;74.70;;;;;;5092849;27;20051;-46
2021/06/16 07:35:50;;;;;;;3.83;2.28;;;28.20;74.50;;;;;;5132655;27;20511;-45
2021/06/16 07:38:20;;;;;;;4.97;3.00;;;28.20;73.50;;;;;;5126885;27;20043;-46
2021/06/16 07:40:48;;;;;;;4.32;2.88;;;28.20;72.70;;;;;;5132267;27;20439;-47
2021/06/16 07:43:16;;;;;;;5.47;2.95;;;28.20;72.80;;;;;;5126634;27;20043;-46
2021/06/16 07:45:43;;;;;;;5.38;2.45;;;28.20;73.00;;;;;;5132119;27;20059;-46
2021/06/16 07:48:11;;;;;;;3.50;2.20;;;28.40;73.10;;;;;;5109480;27;20451;-46
2021/06/16 07:50:40;;;;;;;7.40;2.28;;;28.50;72.90;;;;;;5132523;27;20451;-45
2021/06/16 07:53:09;;;;;;;5.22;3.40;;;28.60;73.10;;;;;;5099808;28;20485;-46
2021/06/16 07:55:39;;;;;;;3.95;2.40;;;28.50;73.60;;;;;;5082940;27;20278;-45
2021/06/16 07:58:07;;;;;;;3.35;2.13;;;28.30;73.00;;;;;;5116726;27;20054;-46
2021/06/16 08:00:35;;;;;;;4.50;2.40;;;28.30;73.50;;;;;;5099608;27;20074;-45
2021/06/16 08:03:04;;;;;;;6.15;2.20;;;28.10;71.40;;;;;;5126287;27;20047;-45
2021/06/16 08:05:32;;;;;;;4.90;2.50;;;28.10;72.20;;;;;;5114883;27;20043;-46
2021/06/16 08:08:00;;;;;;;6.28;2.83;;;28.10;72.30;;;;;;5125551;27;20092;-51
2021/06/16 08:10:30;;;;;;;3.63;2.15;;;28.20;72.20;;;;;;5133105;27;21041;-51
2021/06/16 08:12:59;;;;;;;6.85;2.70;;;28.30;73.40;;;;;;5108431;27;20137;-53
2021/06/16 08:15:27;;;;;;;4.85;2.50;;;28.20;72.90;;;;;;5133413;27;20058;-50
2021/06/16 08:17:56;;;;;;;5.35;2.90;;;28.40;72.90;;;;;;5091021;27;20043;-49
2021/06/16 08:20:24;;;;;;;6.45;2.78;;;28.60;72.90;;;;;;5116532;27;20057;-49
2021/06/16 08:22:52;;;;;;;4.90;2.65;;;28.60;73.90;;;;;;5107172;27;20097;-47
2021/06/16 08:25:20;;;;;;;3.70;2.63;;;28.70;74.30;;;;;;5134391;27;20043;-46
2021/06/16 08:27:50;;;;;;;7.72;3.47;;;28.70;73.80;;;;;;5122870;27;20105;-51
2021/06/16 08:30:18;;;;;;;10.48;3.05;;;28.70;72.90;;;;;;5133507;27;20067;-46
2021/06/16 08:32:46;;;;;;;4.80;2.95;;;28.60;73.30;;;;;;5124808;27;20047;-52
2021/06/16 08:35:15;;;;;;;7.72;3.13;;;28.60;74.20;;;;;;5116570;27;20043;-46
2021/06/16 08:37:43;;;;;;;5.05;2.63;;;28.70;74.20;;;;;;5104058;28;20472;-46
2021/06/16 08:40:12;;;;;;;9.15;2.78;;;28.80;73.50;;;;;;5077355;28;20040;-45
2021/06/16 08:42:41;;;;;;;5.82;3.08;;;28.80;72.80;;;;;;5086092;28;20054;-47
2021/06/16 08:45:09;;;;;;;6.60;2.40;;;28.80;71.80;;;;;;5080154;28;20051;-46
2021/06/16 08:47:37;;;;;;;5.90;3.38;;;28.70;69.90;;;;;;5122113;27;20047;-50
2021/06/16 08:50:08;;;;;;;6.78;3.00;;;28.80;71.80;;;;;;5117685;27;20046;-47
2021/06/16 08:52:36;;;;;;;6.55;3.00;;;28.80;71.60;;;;;;5125490;27;20047;-45
2021/06/16 08:55:09;;;;;;;5.13;2.20;;;28.70;69.20;;;;;;5096831;28;20457;-46
2021/06/16 08:57:39;;;;;;;5.25;3.17;;;28.70;68.90;;;;;;5123468;27;20043;-46
2021/06/16 09:00:09;;;;;;;4.82;2.97;;;28.60;71.90;;;;;;5100540;27;20103;-45
2021/06/16 09:02:37;;;;;;;5.00;2.65;;;28.80;71.60;;;;;;5084970;28;20052;-51
2021/06/16 09:05:07;;;;;;;4.15;2.60;;;28.70;69.00;;;;;;5096742;28;20078;-45
2021/06/16 09:07:39;;;;;;;3.20;2.25;;;28.80;67.80;;;;;;5125245;27;20059;-48
2021/06/16 09:10:13;;;;;;;3.60;2.60;;;28.90;67.80;;;;;;5113597;28;20050;-52
2021/06/16 09:12:52;;;;;;;4.10;2.70;;;29.10;69.00;;;;;;5103458;28;20052;-47
2021/06/16 09:15:22;;;;;;;6.03;2.83;;;28.90;67.10;;;;;;5095114;27;20163;-47
2021/06/16 09:18:08;;;;;;;3.60;2.53;;;29.00;67.70;;;;;;5120939;27;20058;-51
2021/06/16 09:20:40;;;;;;;6.65;3.35;;;29.00;68.70;;;;;;5132132;27;20051;-47
2021/06/16 09:23:28;;;;;;;4.13;2.63;;;28.90;68.50;;;;;;5101592;28;20401;-50
2021/06/16 09:26:10;;;;;;;7.65;2.95;;;28.90;68.00;;;;;;5117467;27;20088;-49
2021/06/16 09:28:41;;;;;;;4.80;2.97;;;29.00;69.30;;;;;;5117393;27;20119;-50
2021/06/16 09:31:12;;;;;;;8.05;4.45;;;29.00;68.40;;;;;;5131518;27;20062;-48
2021/06/16 09:33:41;;;;;;;8.75;3.85;;;29.10;67.30;;;;;;5116168;27;20381;-46
2021/06/16 09:36:17;;;;;;;5.45;3.05;;;28.80;63.40;;;;;;5129240;27;20047;-47
2021/06/16 09:38:47;;;;;;;6.60;4.20;;;28.60;62.70;;;;;;5100865;27;20092;-46
2021/06/16 09:41:20;;;;;;;10.07;4.60;;;28.60;63.60;;;;;;5128795;27;20104;-46
2021/06/16 09:43:49;;;;;;;5.68;2.85;;;28.70;63.70;;;;;;5127410;27;20051;-47
2021/06/16 09:46:17;;;;;;;4.57;2.22;;;28.60;63.00;;;;;;5128866;27;20051;-52
2021/06/16 09:48:47;;;;;;;3.20;2.53;;;28.60;63.10;;;;;;5108330;27;20039;-47
2021/06/16 09:51:28;;;;;;;3.22;2.33;;;28.80;63.50;;;;;;5128805;27;20054;-47
2021/06/16 09:54:15;;;;;;;3.15;1.90;;;28.80;63.80;;;;;;5128336;27;20047;-49
2021/06/16 09:56:53;;;;;;;6.22;2.72;;;28.90;63.70;;;;;;5108116;28;20043;-53
2021/06/16 09:59:38;;;;;;;5.68;2.35;;;28.90;63.20;;;;;;5131549;27;20195;-46
2021/06/16 10:02:18;;;;;;;4.43;2.40;;;28.90;62.50;;;;;;5123097;27;20123;-47
2021/06/16 10:04:50;;;;;;;4.93;2.95;;;28.70;64.90;;;;;;5109417;28;20040;-48
2021/06/16 10:07:20;;;;;;;5.40;2.90;;;28.60;65.00;;;;;;5115852;27;20055;-52
2021/06/16 10:10:03;;;;;;;4.32;2.00;;;28.50;64.80;;;;;;5133151;27;20143;-51
2021/06/16 10:12:43;;;;;;;5.03;2.50;;;28.60;64.20;;;;;;5102167;28;20520;-49
2021/06/16 10:15:17;;;;;;;3.30;2.45;;;28.50;65.20;;;;;;5132341;27;20039;-47
2021/06/16 10:17:46;;;;;;;3.90;2.72;;;28.40;65.70;;;;;;5121446;27;20484;-52
2021/06/16 10:20:15;;;;;;;6.07;3.50;;;28.50;65.00;;;;;;5131969;27;20401;-48
2021/06/16 10:22:43;;;;;;;6.28;5.18;;;28.50;66.70;;;;;;5123934;27;20048;-47
2021/06/16 10:25:12;;;;;;;5.43;3.85;;;28.60;65.60;;;;;;5111743;28;20047;-57
2021/06/16 10:27:54;;;;;;;4.82;3.05;;;28.60;65.50;;;;;;5104158;27;20055;-46
2021/06/16 10:30:25;;;;;;;11.02;4.45;;;28.70;65.50;;;;;;5113989;27;20142;-50
2021/06/16 10:32:53;;;;;;;7.97;5.28;;;28.80;67.20;;;;;;5121202;27;20047;-53
2021/06/16 10:35:33;;;;;;;5.97;4.65;;;28.90;68.50;;;;;;5131102;28;20489;-52
2021/06/16 10:38:18;;;;;;;4.75;3.10;;;28.90;69.40;;;;;;5123939;28;20142;-48
2021/06/16 10:40:55;;;;;;;5.05;3.05;;;28.90;65.40;;;;;;5128733;28;20039;-46
2021/06/16 10:43:40;;;;;;;7.22;4.03;;;28.70;67.90;;;;;;5114822;28;20493;-47
2021/06/16 10:46:13;;;;;;;5.10;3.38;;;28.80;68.20;;;;;;5128834;28;20051;-47
2021/06/16 10:48:54;;;;;;;7.93;2.95;;;28.80;67.30;;;;;;5115742;28;20055;-47
2021/06/16 10:51:23;;;;;;;5.57;3.38;;;28.90;66.40;;;;;;5127327;28;20122;-50
2021/06/16 10:54:19;;;;;;;5.22;4.65;;;28.90;66.90;;;;;;5108801;28;20043;-48
2021/06/16 10:56:55;;;;;;;6.63;4.07;;;28.90;65.90;;;;;;5123851;28;20047;-47
2021/06/16 10:59:53;;;;;;;5.43;4.05;;;28.90;65.80;;;;;;5130925;28;20122;-46
2021/06/16 11:02:34;;;;;;;4.63;3.50;;;28.80;65.40;;;;;;5104001;28;20048;-47
2021/06/16 11:05:26;;;;;;;4.50;3.42;;;28.80;64.60;;;;;;5132554;28;20051;-46
2021/06/16 11:07:55;;;;;;;7.30;3.97;;;28.70;63.60;;;;;;5103562;28;20092;-46
2021/06/16 11:10:23;;;;;;;5.80;3.10;;;28.70;64.80;;;;;;5114123;28;20092;-47
2021/06/16 11:12:53;;;;;;;8.75;5.78;;;28.70;64.90;;;;;;5121342;28;20138;-47
2021/06/16 11:15:24;;;;;;;8.52;4.88;;;28.70;64.60;;;;;;5113982;28;20070;-47
2021/06/16 11:17:53;;;;;;;6.65;4.00;;;28.80;64.30;;;;;;5120895;28;20399;-50
2021/06/16 11:20:26;;;;;;;4.97;3.08;;;28.70;63.60;;;;;;5130948;28;20051;-46
2021/06/16 11:22:55;;;;;;;7.38;3.75;;;28.50;65.50;;;;;;5103431;28;20096;-46
2021/06/16 11:25:27;;;;;;;7.55;4.90;;;28.50;63.50;;;;;;5096880;28;20047;-46
2021/06/16 11:28:11;;;;;;;6.80;3.75;;;28.50;62.90;;;;;;5118027;28;20055;-46
2021/06/16 11:30:49;;;;;;;4.75;4.35;;;28.50;62.90;;;;;;5112405;28;20117;-47
2021/06/16 11:33:17;;;;;;;5.20;3.90;;;28.50;62.90;;;;;;5130892;27;20056;-46
2021/06/16 11:35:47;;;;;;;9.02;6.03;;;28.60;62.50;;;;;;5098276;28;20054;-45
2021/06/16 11:38:21;;;;;;;7.22;5.57;;;28.70;63.70;;;;;;5122756;28;20071;-47
2021/06/16 11:41:17;;;;;;;5.15;3.95;;;28.70;62.50;;;;;;5110237;27;20149;-46
2021/06/16 11:43:49;;;;;;;6.50;4.07;;;28.60;62.60;;;;;;5090707;28;20044;-46
2021/06/16 11:46:19;;;;;;;6.03;4.40;;;28.60;63.50;;;;;;5103827;27;20546;-47
2021/06/16 11:48:48;;;;;;;7.28;6.20;;;28.70;64.60;;;;;;5094432;27;20050;-52
2021/06/16 11:51:41;;;;;;;6.90;6.18;;;28.70;63.90;;;;;;5114099;27;20074;-52
2021/06/16 11:54:23;;;;;;;7.90;5.38;;;28.70;62.60;;;;;;5114042;27;20061;-47
2021/06/16 11:57:00;;;;;;;7.15;5.95;;;28.60;61.40;;;;;;5126182;27;20051;-47
2021/06/16 11:59:46;;;;;;;5.53;4.07;;;28.50;62.30;;;;;;5116711;27;20047;-49
2021/06/16 12:02:19;;;;;;;6.25;4.15;;;28.40;62.10;;;;;;5124087;27;20078;-50
2021/06/16 12:04:49;;;;;;;7.03;4.53;;;28.20;61.40;;;;;;5111265;28;20434;-48
2021/06/16 12:07:27;;;;;;;7.82;6.15;;;28.10;60.50;;;;;;5120272;27;20047;-47
2021/06/16 12:10:01;;;;;;;8.80;5.35;;;27.90;62.50;;;;;;5118654;27;20094;-49
2021/06/16 12:12:53;;;;;;;6.30;3.72;;;28.00;62.90;;;;;;5104282;27;20089;-50
2021/06/16 12:15:23;;;;;;;6.30;5.03;;;28.00;62.90;;;;;;5116927;27;20043;-46
2021/06/16 12:18:00;;;;;;;8.45;5.43;;;27.90;61.80;;;;;;5122218;27;20711;-46
2021/06/16 12:20:41;;;;;;;8.18;6.65;;;27.90;62.60;;;;;;5134207;27;20050;-47
2021/06/16 12:23:32;;;;;;;9.95;6.95;;;28.00;64.10;;;;;;5120901;27;20062;-46
2021/06/16 12:26:14;;;;;;;9.65;7.53;;;28.10;63.70;;;;;;5083505;27;20078;-48
2021/06/16 12:28:48;;;;;;;6.55;5.68;;;28.00;62.40;;;;;;5089665;28;20062;-46
2021/06/16 12:31:45;;;;;;;9.68;8.25;;;28.00;63.20;;;;;;5120686;27;20138;-47
2021/06/16 12:34:29;;;;;;;14.23;11.70;;;27.90;63.90;;;;;;5131938;27;20401;-47
2021/06/16 12:37:16;;;;;;;17.80;13.63;;;27.90;64.90;;;;;;5126007;27;20079;-46
2021/06/16 12:39:54;;;;;;;15.00;13.43;;;28.10;64.80;;;;;;5095033;28;20406;-46
2021/06/16 12:42:38;;;;;;;16.45;12.70;;;28.10;64.90;;;;;;5082644;27;20036;-51
2021/06/16 12:45:37;;;;;;;15.20;12.05;;;28.20;65.40;;;;;;5134579;27;20046;-49
2021/06/16 12:48:27;;;;;;;9.93;7.90;;;28.30;65.30;;;;;;5125386;27;20043;-50
2021/06/16 12:51:04;;;;;;;11.70;7.38;;;28.40;64.50;;;;;;5131953;27;20047;-47
2021/06/16 12:53:40;;;;;;;9.80;6.40;;;28.40;64.00;;;;;;5108359;27;20047;-45
2021/06/16 12:56:07;;;;;;;;;;;28.40;63.70;;;;;;5131189;27;20397;-46
2021/06/16 12:58:46;;;;;;;5.43;3.80;;;28.50;63.70;;;;;;5126781;27;20002;-46
2021/06/16 13:01:19;;;;;;;6.90;5.90;;;28.70;62.60;;;;;;5131480;27;20039;-52
2021/06/16 13:03:49;;;;;;;7.95;7.03;;;28.60;62.30;;;;;;5127183;27;20594;-48
2021/06/16 13:06:18;;;;;;;8.35;4.45;;;28.60;63.20;;;;;;5112942;27;20053;-48
2021/06/16 13:08:49;;;;;;;5.90;3.20;;;28.50;62.30;;;;;;5126297;27;20073;-47